createdAt,value
2019-03-10T00:00:32.394Z,0.00
2019-03-10T00:01:32.390Z,0.00
2019-03-10T00:02:32.389Z,0.00
2019-03-10T00:03:32.355Z,0.00
2019-03-10T00:04:32.349Z,0.00
2019-03-10T00:05:32.336Z,0.00
2019-03-10T00:06:32.338Z,0.00
2019-03-10T00:07:32.335Z,0.00
2019-03-10T00:08:32.305Z,0.00
2019-03-10T00:09:32.316Z,0.00
2019-03-10T00:10:32.284Z,0.00
2019-03-10T00:11:32.272Z,0.00
2019-03-10T00:12:32.291Z,0.00
2019-03-10T00:13:32.251Z,0.00
2019-03-10T00:14:32.240Z,0.00
2019-03-10T00:15:32.230Z,0.00
2019-03-10T00:16:32.218Z,0.00
2019-03-10T00:17:32.232Z,0.00
2019-03-10T00:18:32.198Z,0.00
2019-03-10T00:19:32.198Z,0.00
2019-03-10T00:20:32.175Z,0.00
2019-03-10T00:21:32.164Z,0.00
2019-03-10T00:22:32.188Z,0.00
2019-03-10T00:23:32.142Z,0.00
2019-03-10T00:24:32.133Z,0.00
2019-03-10T00:25:32.159Z,0.00
2019-03-10T00:26:32.110Z,0.00
2019-03-10T00:27:32.100Z,0.00
2019-03-10T00:28:32.116Z,0.00
2019-03-10T00:29:32.078Z,0.00
2019-03-10T00:30:32.111Z,0.00
2019-03-10T00:31:32.064Z,0.00
2019-03-10T00:32:32.046Z,0.00
2019-03-10T00:33:32.054Z,0.00
2019-03-10T00:34:32.025Z,0.00
2019-03-10T00:35:32.017Z,0.00
2019-03-10T00:36:32.009Z,0.00
2019-03-10T00:37:32.013Z,0.00
2019-03-10T00:38:32.014Z,0.00
2019-03-10T00:39:31.970Z,0.00
2019-03-10T00:40:39.002Z,0.00
2019-03-10T00:41:31.949Z,0.00
2019-03-10T00:42:32.158Z,0.00
2019-03-10T00:43:31.947Z,0.00
2019-03-10T00:44:31.919Z,0.00
2019-03-10T00:45:31.917Z,0.00
2019-03-10T00:46:31.895Z,0.00
2019-03-10T00:47:31.907Z,0.00
2019-03-10T00:48:31.890Z,0.00
2019-03-10T00:49:31.868Z,0.00
2019-03-10T00:50:31.858Z,0.00
2019-03-10T00:51:34.163Z,0.00
2019-03-10T00:52:31.829Z,0.00
2019-03-10T00:53:31.841Z,0.00
2019-03-10T00:54:31.807Z,0.00
2019-03-10T00:55:31.796Z,0.00
2019-03-10T00:56:31.796Z,0.00
2019-03-10T00:57:31.839Z,0.00
2019-03-10T00:58:31.786Z,0.00
2019-03-10T00:59:31.754Z,0.00
2019-03-10T01:00:31.743Z,0.00
2019-03-10T01:01:31.731Z,0.00
2019-03-10T01:02:31.727Z,0.00
2019-03-10T01:03:31.738Z,0.00
2019-03-10T01:04:31.704Z,0.00
2019-03-10T01:05:31.703Z,0.00
2019-03-10T01:06:31.685Z,0.00
2019-03-10T01:07:31.667Z,0.00
2019-03-10T01:08:31.689Z,0.00
2019-03-10T01:09:31.710Z,0.00
2019-03-10T01:10:31.650Z,0.00
2019-03-10T01:11:31.626Z,0.00
2019-03-10T01:12:31.615Z,0.00
2019-03-10T01:13:31.628Z,0.00
2019-03-10T01:14:31.596Z,0.00
2019-03-10T01:15:31.591Z,0.00
2019-03-10T01:16:31.575Z,0.00
2019-03-10T01:17:31.560Z,0.00
2019-03-10T01:18:31.580Z,0.00
2019-03-10T01:19:31.540Z,0.00
2019-03-10T01:20:31.529Z,0.00
2019-03-10T01:21:31.515Z,0.00
2019-03-10T01:22:31.507Z,0.00
2019-03-10T01:23:31.522Z,0.00
2019-03-10T01:24:31.489Z,0.00
2019-03-10T01:25:31.476Z,0.00
2019-03-10T01:26:31.464Z,0.00
2019-03-10T01:27:31.450Z,0.00
2019-03-10T01:28:31.465Z,0.00
2019-03-10T01:29:31.430Z,0.00
2019-03-10T01:30:31.420Z,0.00
2019-03-10T01:31:31.443Z,0.00
2019-03-10T01:32:31.408Z,0.00
2019-03-10T01:33:31.406Z,0.00
2019-03-10T01:34:31.377Z,0.00
2019-03-10T01:35:31.369Z,0.00
2019-03-10T01:36:31.357Z,0.00
2019-03-10T01:37:31.413Z,0.00
2019-03-10T01:38:31.352Z,0.00
2019-03-10T01:39:31.319Z,0.00
2019-03-10T01:40:31.312Z,0.00
2019-03-10T01:41:31.308Z,0.00
2019-03-10T01:42:31.287Z,0.00
2019-03-10T01:43:31.298Z,0.00
2019-03-10T01:44:31.267Z,0.00
2019-03-10T01:45:31.272Z,0.00
2019-03-10T01:46:31.244Z,0.00
2019-03-10T01:47:31.239Z,0.00
2019-03-10T01:48:31.246Z,0.00
2019-03-10T01:49:31.216Z,0.00
2019-03-10T01:50:31.206Z,0.00
2019-03-10T01:51:31.201Z,0.00
2019-03-10T01:52:31.188Z,0.00
2019-03-10T01:53:31.195Z,0.00
2019-03-10T01:54:31.160Z,0.00
2019-03-10T01:55:31.149Z,0.00
2019-03-10T01:56:31.148Z,0.00
2019-03-10T01:57:31.127Z,0.00
2019-03-10T01:58:31.141Z,0.00
2019-03-10T01:59:31.108Z,0.00
2019-03-10T02:00:31.110Z,0.00
2019-03-10T02:01:31.152Z,0.00
2019-03-10T02:02:31.070Z,0.00
2019-03-10T02:03:31.086Z,0.00
2019-03-10T02:04:31.144Z,0.00
2019-03-10T02:05:31.038Z,0.00
2019-03-10T02:06:31.037Z,0.00
2019-03-10T02:07:31.020Z,0.00
2019-03-10T02:08:31.005Z,0.00
2019-03-10T02:09:31.019Z,0.00
2019-03-10T02:10:31.019Z,0.00
2019-03-10T02:11:30.977Z,0.00
2019-03-10T02:12:30.967Z,0.00
2019-03-10T02:13:30.962Z,0.00
2019-03-10T02:14:30.963Z,0.00
2019-03-10T02:15:30.936Z,0.00
2019-03-10T02:16:30.918Z,0.00
2019-03-10T02:17:30.971Z,0.00
2019-03-10T02:18:30.898Z,0.00
2019-03-10T02:19:30.912Z,0.00
2019-03-10T02:20:30.888Z,0.00
2019-03-10T02:21:30.863Z,0.00
2019-03-10T02:22:30.853Z,0.00
2019-03-10T02:23:30.847Z,0.00
2019-03-10T02:24:30.864Z,0.00
2019-03-10T02:25:30.821Z,0.00
2019-03-10T02:26:30.809Z,0.00
2019-03-10T02:27:30.803Z,0.00
2019-03-10T02:28:30.788Z,0.00
2019-03-10T02:29:30.799Z,0.00
2019-03-10T02:30:30.852Z,0.00
2019-03-10T02:31:30.756Z,0.00
2019-03-10T02:32:30.759Z,0.00
2019-03-10T02:33:30.741Z,0.00
2019-03-10T02:34:30.744Z,0.00
2019-03-10T02:35:30.737Z,0.00
2019-03-10T02:36:30.710Z,0.00
2019-03-10T02:37:30.706Z,0.00
2019-03-10T02:38:30.692Z,0.00
2019-03-10T02:39:30.692Z,0.00
2019-03-10T02:40:30.658Z,0.00
2019-03-10T02:41:30.648Z,0.00
2019-03-10T02:42:30.643Z,0.00
2019-03-10T02:43:30.638Z,0.00
2019-03-10T02:44:30.654Z,0.00
2019-03-10T02:45:30.717Z,0.00
2019-03-10T02:46:30.591Z,0.00
2019-03-10T02:47:30.582Z,0.00
2019-03-10T02:48:30.574Z,0.00
2019-03-10T02:49:30.588Z,0.00
2019-03-10T02:50:30.557Z,0.00
2019-03-10T02:51:30.539Z,0.00
2019-03-10T02:52:30.533Z,0.00
2019-03-10T02:53:30.586Z,0.00
2019-03-10T02:54:30.545Z,0.00
2019-03-10T02:55:30.498Z,0.00
2019-03-10T02:56:30.489Z,0.00
2019-03-10T02:57:30.476Z,0.00
2019-03-10T02:58:30.462Z,0.00
2019-03-10T02:59:30.473Z,0.00
2019-03-10T03:00:30.444Z,0.00
2019-03-10T03:01:30.431Z,0.00
2019-03-10T03:02:30.422Z,0.00
2019-03-10T03:03:30.412Z,0.00
2019-03-10T03:04:30.416Z,0.00
2019-03-10T03:05:30.387Z,0.00
2019-03-10T03:06:30.377Z,0.00
2019-03-10T03:07:30.364Z,0.00
2019-03-10T03:08:30.367Z,0.00
2019-03-10T03:09:30.368Z,0.00
2019-03-10T03:10:30.332Z,0.00
2019-03-10T03:11:30.322Z,0.00
2019-03-10T03:12:30.311Z,0.00
2019-03-10T03:13:30.315Z,0.00
2019-03-10T03:14:30.308Z,0.00
2019-03-10T03:15:30.289Z,0.00
2019-03-10T03:16:30.286Z,0.00
2019-03-10T03:17:30.266Z,0.00
2019-03-10T03:18:30.247Z,0.00
2019-03-10T03:19:30.257Z,0.00
2019-03-10T03:20:30.225Z,0.00
2019-03-10T03:21:42.436Z,0.00
2019-03-10T03:22:31.231Z,0.00
2019-03-10T03:23:30.201Z,0.00
2019-03-10T03:24:30.202Z,0.00
2019-03-10T03:25:30.180Z,0.00
2019-03-10T03:26:30.164Z,0.00
2019-03-10T03:27:30.148Z,0.00
2019-03-10T03:28:30.138Z,0.00
2019-03-10T03:29:30.148Z,0.00
2019-03-10T03:30:30.127Z,0.00
2019-03-10T03:31:30.115Z,0.00
2019-03-10T03:32:30.119Z,0.00
2019-03-10T03:33:30.111Z,0.00
2019-03-10T03:34:30.095Z,0.00
2019-03-10T03:35:30.063Z,0.00
2019-03-10T03:36:30.056Z,0.00
2019-03-10T03:37:30.047Z,0.00
2019-03-10T03:38:30.031Z,0.00
2019-03-10T03:39:30.058Z,0.00
2019-03-10T03:40:30.017Z,0.00
2019-03-10T03:41:29.996Z,0.00
2019-03-10T03:42:29.995Z,0.00
2019-03-10T03:43:30.005Z,0.00
2019-03-10T03:44:30.000Z,0.00
2019-03-10T03:45:29.970Z,0.00
2019-03-10T03:46:29.965Z,0.00
2019-03-10T03:47:29.933Z,0.00
2019-03-10T03:48:29.934Z,0.00
2019-03-10T03:49:29.918Z,0.00
2019-03-10T03:50:29.938Z,0.00
2019-03-10T03:51:29.890Z,0.00
2019-03-10T03:52:29.910Z,0.00
2019-03-10T03:53:29.870Z,0.00
2019-03-10T03:54:29.864Z,0.00
2019-03-10T03:55:29.879Z,0.00
2019-03-10T03:56:29.840Z,0.00
2019-03-10T03:57:29.826Z,0.00
2019-03-10T03:58:29.821Z,0.00
2019-03-10T03:59:29.804Z,0.00
2019-03-10T04:00:29.814Z,0.00
2019-03-10T04:01:29.793Z,0.00
2019-03-10T04:02:29.790Z,0.00
2019-03-10T04:03:29.775Z,0.00
2019-03-10T04:04:29.750Z,0.00
2019-03-10T04:05:29.760Z,0.00
2019-03-10T04:06:29.735Z,0.00
2019-03-10T04:07:29.722Z,0.00
2019-03-10T04:08:29.707Z,0.00
2019-03-10T04:09:29.702Z,0.00
2019-03-10T04:10:29.709Z,0.00
2019-03-10T04:11:29.678Z,0.00
2019-03-10T04:12:29.734Z,0.00
2019-03-10T04:13:29.672Z,0.00
2019-03-10T04:14:29.643Z,0.00
2019-03-10T04:15:29.650Z,0.00
2019-03-10T04:16:29.621Z,0.00
2019-03-10T04:17:29.615Z,0.00
2019-03-10T04:18:29.600Z,0.00
2019-03-10T04:19:29.601Z,0.00
2019-03-10T04:20:29.609Z,0.00
2019-03-10T04:21:29.571Z,0.00
2019-03-10T04:22:29.558Z,0.00
2019-03-10T04:23:29.548Z,0.00
2019-03-10T04:24:29.536Z,0.00
2019-03-10T04:25:29.567Z,0.00
2019-03-10T04:26:29.522Z,0.00
2019-03-10T04:27:29.515Z,0.00
2019-03-10T04:28:29.494Z,0.00
2019-03-10T04:29:29.486Z,0.00
2019-03-10T04:30:29.491Z,0.00
2019-03-10T04:31:29.469Z,0.00
2019-03-10T04:32:29.485Z,0.00
2019-03-10T04:33:29.444Z,0.00
2019-03-10T04:34:29.444Z,0.00
2019-03-10T04:35:29.457Z,0.00
2019-03-10T04:36:29.410Z,0.00
2019-03-10T04:37:29.402Z,0.00
2019-03-10T04:38:29.391Z,0.00
2019-03-10T04:39:29.383Z,0.00
2019-03-10T04:40:29.388Z,0.00
2019-03-10T04:41:29.356Z,0.00
2019-03-10T04:42:29.347Z,0.00
2019-03-10T04:43:29.335Z,0.00
2019-03-10T04:44:29.325Z,0.00
2019-03-10T04:45:29.344Z,0.00
2019-03-10T04:46:29.304Z,0.00
2019-03-10T04:47:29.293Z,0.00
2019-03-10T04:48:29.285Z,0.00
2019-03-10T04:49:29.282Z,0.00
2019-03-10T04:50:29.287Z,0.00
2019-03-10T04:51:29.252Z,0.00
2019-03-10T04:52:29.246Z,0.00
2019-03-10T04:53:29.232Z,0.00
2019-03-10T04:54:29.223Z,0.00
2019-03-10T04:55:29.231Z,0.00
2019-03-10T04:56:29.201Z,0.00
2019-03-10T04:57:29.191Z,0.00
2019-03-10T04:58:29.184Z,0.00
2019-03-10T04:59:29.172Z,0.00
2019-03-10T05:00:29.177Z,0.00
2019-03-10T05:01:29.151Z,0.00
2019-03-10T05:02:29.139Z,0.00
2019-03-10T05:03:29.125Z,0.00
2019-03-10T05:04:31.451Z,0.00
2019-03-10T05:05:29.131Z,0.00
2019-03-10T05:06:29.096Z,0.00
2019-03-10T05:07:29.086Z,0.00
2019-03-10T05:08:29.081Z,0.00
2019-03-10T05:09:29.065Z,0.00
2019-03-10T05:10:29.074Z,0.00
2019-03-10T05:11:29.048Z,0.00
2019-03-10T05:12:29.050Z,0.00
2019-03-10T05:13:29.024Z,0.00
2019-03-10T05:14:29.018Z,0.00
2019-03-10T05:15:29.022Z,0.00
2019-03-10T05:16:28.991Z,0.00
2019-03-10T05:17:28.982Z,0.00
2019-03-10T05:18:28.972Z,0.00
2019-03-10T05:19:28.963Z,0.00
2019-03-10T05:20:28.969Z,0.00
2019-03-10T05:21:28.940Z,0.00
2019-03-10T05:22:28.930Z,0.00
2019-03-10T05:23:28.919Z,0.00
2019-03-10T05:24:28.908Z,0.00
2019-03-10T05:25:28.924Z,0.00
2019-03-10T05:26:28.888Z,0.00
2019-03-10T05:27:28.878Z,0.00
2019-03-10T05:28:28.867Z,0.00
2019-03-10T05:29:28.858Z,0.00
2019-03-10T05:30:28.872Z,0.00
2019-03-10T05:31:28.843Z,0.00
2019-03-10T05:32:28.828Z,0.00
2019-03-10T05:33:28.814Z,0.00
2019-03-10T05:34:28.826Z,0.00
2019-03-10T05:35:28.794Z,0.00
2019-03-10T05:36:28.803Z,0.00
2019-03-10T05:37:28.779Z,0.00
2019-03-10T05:38:28.778Z,0.00
2019-03-10T05:39:28.759Z,0.00
2019-03-10T05:40:28.743Z,0.00
2019-03-10T05:41:28.755Z,0.00
2019-03-10T05:42:28.722Z,0.00
2019-03-10T05:43:28.713Z,0.00
2019-03-10T05:44:28.730Z,4.00
2019-03-10T05:45:28.691Z,0.00
2019-03-10T05:46:28.709Z,4.00
2019-03-10T05:47:28.671Z,4.00
2019-03-10T05:48:28.659Z,4.00
2019-03-10T05:49:28.649Z,4.00
2019-03-10T05:50:28.655Z,8.00
2019-03-10T05:51:28.650Z,8.00
2019-03-10T05:52:28.618Z,8.00
2019-03-10T05:53:28.614Z,8.00
2019-03-10T05:54:28.598Z,8.00
2019-03-10T05:55:28.588Z,12.00
2019-03-10T05:56:28.597Z,12.00
2019-03-10T05:57:28.576Z,8.00
2019-03-10T05:58:28.555Z,12.00
2019-03-10T05:59:28.545Z,12.00
2019-03-10T06:00:28.536Z,12.00
2019-03-10T06:01:28.545Z,16.00
2019-03-10T06:02:28.514Z,16.00
2019-03-10T06:03:28.509Z,16.00
2019-03-10T06:04:28.513Z,16.00
2019-03-10T06:05:28.483Z,16.00
2019-03-10T06:06:28.496Z,24.00
2019-03-10T06:07:28.475Z,24.00
2019-03-10T06:08:28.453Z,20.00
2019-03-10T06:09:28.441Z,20.00
2019-03-10T06:10:28.453Z,16.00
2019-03-10T06:11:28.444Z,24.00
2019-03-10T06:12:28.411Z,36.00
2019-03-10T06:13:28.400Z,32.00
2019-03-10T06:14:28.393Z,20.00
2019-03-10T06:15:28.402Z,20.00
2019-03-10T06:16:28.390Z,16.00
2019-03-10T06:17:28.368Z,16.00
2019-03-10T06:18:28.349Z,16.00
2019-03-10T06:19:28.342Z,24.00
2019-03-10T06:20:28.340Z,28.00
2019-03-10T06:21:28.346Z,36.00
2019-03-10T06:22:28.309Z,48.00
2019-03-10T06:23:28.298Z,40.00
2019-03-10T06:24:28.290Z,68.00
2019-03-10T06:25:28.275Z,68.00
2019-03-10T06:26:28.288Z,48.00
2019-03-10T06:27:28.257Z,40.00
2019-03-10T06:28:28.244Z,40.00
2019-03-10T06:29:28.230Z,40.00
2019-03-10T06:30:28.318Z,40.00
2019-03-10T06:31:28.234Z,32.00
2019-03-10T06:32:28.210Z,28.00
2019-03-10T06:33:28.191Z,20.00
2019-03-10T06:34:28.195Z,28.00
2019-03-10T06:35:28.172Z,28.00
2019-03-10T06:36:28.177Z,40.00
2019-03-10T06:37:28.149Z,52.00
2019-03-10T06:38:28.145Z,72.00
2019-03-10T06:39:28.138Z,104.00
2019-03-10T06:40:32.012Z,96.00
2019-03-10T06:41:28.132Z,92.00
2019-03-10T06:42:28.097Z,100.00
2019-03-10T06:43:28.091Z,64.00
2019-03-10T06:44:28.076Z,52.00
2019-03-10T06:45:28.067Z,56.00
2019-03-10T06:46:28.083Z,68.00
2019-03-10T06:47:28.044Z,72.00
2019-03-10T06:48:28.034Z,68.00
2019-03-10T06:49:28.025Z,100.00
2019-03-10T06:50:28.015Z,192.00
2019-03-10T06:51:28.026Z,236.00
2019-03-10T06:52:28.000Z,196.00
2019-03-10T06:53:27.984Z,172.00
2019-03-10T06:54:27.970Z,204.00
2019-03-10T06:55:27.962Z,400.00
2019-03-10T06:56:28.024Z,380.00
2019-03-10T06:57:27.939Z,284.00
2019-03-10T06:58:27.931Z,220.00
2019-03-10T06:59:27.919Z,224.00
2019-03-10T07:00:27.906Z,224.00
2019-03-10T07:01:27.918Z,200.00
2019-03-10T07:02:27.885Z,124.00
2019-03-10T07:03:27.882Z,92.00
2019-03-10T07:04:27.880Z,128.00
2019-03-10T07:05:27.855Z,140.00
2019-03-10T07:06:27.876Z,256.00
2019-03-10T07:07:27.833Z,224.00
2019-03-10T07:08:27.837Z,256.00
2019-03-10T07:09:27.815Z,360.00
2019-03-10T07:10:27.808Z,304.00
2019-03-10T07:11:27.833Z,280.00
2019-03-10T07:12:27.783Z,360.00
2019-03-10T07:13:27.770Z,288.00
2019-03-10T07:14:27.763Z,244.00
2019-03-10T07:15:27.763Z,248.00
2019-03-10T07:16:27.783Z,224.00
2019-03-10T07:17:27.733Z,236.00
2019-03-10T07:18:27.729Z,212.00
2019-03-10T07:19:27.713Z,268.00
2019-03-10T07:20:27.696Z,272.00
2019-03-10T07:21:27.693Z,232.00
2019-03-10T07:22:27.708Z,328.00
2019-03-10T07:23:27.669Z,384.00
2019-03-10T07:24:27.657Z,340.00
2019-03-10T07:25:27.648Z,476.00
2019-03-10T07:26:27.645Z,536.00
2019-03-10T07:27:27.643Z,396.00
2019-03-10T07:28:27.614Z,312.00
2019-03-10T07:29:27.604Z,436.00
2019-03-10T07:30:27.594Z,304.00
2019-03-10T07:31:27.600Z,308.00
2019-03-10T07:32:27.594Z,364.00
2019-03-10T07:33:27.564Z,432.00
2019-03-10T07:34:27.560Z,464.00
2019-03-10T07:35:27.555Z,544.00
2019-03-10T07:36:27.534Z,456.00
2019-03-10T07:37:27.543Z,592.00
2019-03-10T07:38:27.512Z,772.00
2019-03-10T07:39:27.527Z,604.00
2019-03-10T07:40:27.496Z,836.00
2019-03-10T07:41:27.485Z,848.00
2019-03-10T07:42:27.500Z,488.00
2019-03-10T07:43:27.456Z,496.00
2019-03-10T07:44:27.448Z,452.00
2019-03-10T07:45:27.465Z,504.00
2019-03-10T07:46:27.430Z,628.00
2019-03-10T07:47:27.441Z,912.00
2019-03-10T07:48:27.410Z,852.00
2019-03-10T07:49:27.410Z,1044.00
2019-03-10T07:50:27.399Z,1112.00
2019-03-10T07:51:27.376Z,980.00
2019-03-10T07:52:27.384Z,1004.00
2019-03-10T07:53:27.361Z,728.00
2019-03-10T07:54:27.350Z,792.00
2019-03-10T07:55:27.339Z,1284.00
2019-03-10T07:56:27.324Z,1152.00
2019-03-10T07:57:27.355Z,1016.00
2019-03-10T07:58:27.311Z,680.00
2019-03-10T07:59:27.291Z,872.00
2019-03-10T08:00:27.286Z,1116.00
2019-03-10T08:01:27.275Z,1172.00
2019-03-10T08:02:27.278Z,1480.00
2019-03-10T08:03:27.250Z,1084.00
2019-03-10T08:04:27.238Z,1612.00
2019-03-10T08:05:27.239Z,2824.00
2019-03-10T08:06:27.217Z,2464.00
2019-03-10T08:07:27.231Z,3552.00
2019-03-10T08:08:27.200Z,2156.00
2019-03-10T08:09:27.188Z,2028.00
2019-03-10T08:10:27.176Z,3264.00
2019-03-10T08:11:27.163Z,5424.00
2019-03-10T08:12:27.178Z,3764.00
2019-03-10T08:13:27.147Z,1312.00
2019-03-10T08:14:27.141Z,1120.00
2019-03-10T08:15:27.129Z,2348.00
2019-03-10T08:16:27.112Z,3620.00
2019-03-10T08:17:27.127Z,6044.00
2019-03-10T08:18:27.091Z,4708.00
2019-03-10T08:19:27.082Z,6732.00
2019-03-10T08:20:27.071Z,4800.00
2019-03-10T08:21:27.067Z,4996.00
2019-03-10T08:22:27.070Z,4928.00
2019-03-10T08:23:27.045Z,3860.00
2019-03-10T08:24:27.046Z,2672.00
2019-03-10T08:25:27.016Z,3300.00
2019-03-10T08:26:27.020Z,2824.00
2019-03-10T08:27:27.024Z,4024.00
2019-03-10T08:28:26.997Z,5236.00
2019-03-10T08:29:26.979Z,6388.00
2019-03-10T08:30:26.972Z,6792.00
2019-03-10T08:31:26.952Z,4984.00
2019-03-10T08:32:26.966Z,6364.00
2019-03-10T08:33:26.947Z,4808.00
2019-03-10T08:34:26.928Z,4424.00
2019-03-10T08:35:26.914Z,3040.00
2019-03-10T08:36:26.899Z,2004.00
2019-03-10T08:37:26.908Z,3356.00
2019-03-10T08:38:26.882Z,2560.00
2019-03-10T08:39:26.865Z,4692.00
2019-03-10T08:40:26.856Z,1416.00
2019-03-10T08:41:26.852Z,1472.00
2019-03-10T08:42:26.873Z,1052.00
2019-03-10T08:43:26.822Z,1864.00
2019-03-10T08:44:26.809Z,1236.00
2019-03-10T08:45:26.812Z,1828.00
2019-03-10T08:46:26.792Z,1308.00
2019-03-10T08:47:26.803Z,3020.00
2019-03-10T08:48:26.768Z,2916.00
2019-03-10T08:49:26.768Z,2864.00
2019-03-10T08:50:26.750Z,3400.00
2019-03-10T08:51:26.739Z,2940.00
2019-03-10T08:52:26.752Z,2964.00
2019-03-10T08:53:26.712Z,1916.00
2019-03-10T08:54:26.703Z,5884.00
2019-03-10T08:55:26.709Z,5120.00
2019-03-10T08:56:26.679Z,7800.00
2019-03-10T08:57:26.817Z,15264.00
2019-03-10T08:58:26.671Z,31264.00
2019-03-10T08:59:26.654Z,33152.00
2019-03-10T09:00:26.649Z,10936.00
2019-03-10T09:01:26.627Z,6644.00
2019-03-10T09:02:26.672Z,6060.00
2019-03-10T09:03:26.655Z,4960.00
2019-03-10T09:04:26.595Z,5316.00
2019-03-10T09:05:26.595Z,5176.00
2019-03-10T09:06:26.574Z,5328.00
2019-03-10T09:07:26.560Z,5216.00
2019-03-10T09:08:26.569Z,3552.00
2019-03-10T09:09:26.541Z,2972.00
2019-03-10T09:10:26.531Z,2976.00
2019-03-10T09:11:26.518Z,2880.00
2019-03-10T09:12:26.512Z,2784.00
2019-03-10T09:13:26.512Z,2492.00
2019-03-10T09:14:26.480Z,2152.00
2019-03-10T09:15:26.467Z,2628.00
2019-03-10T09:16:26.465Z,2784.00
2019-03-10T09:17:26.448Z,2004.00
2019-03-10T09:18:26.476Z,2052.00
2019-03-10T09:19:26.424Z,2176.00
2019-03-10T09:20:26.414Z,2552.00
2019-03-10T09:21:26.401Z,2000.00
2019-03-10T09:22:26.398Z,1304.00
2019-03-10T09:23:26.403Z,1724.00
2019-03-10T09:24:26.366Z,1884.00
2019-03-10T09:25:26.358Z,2848.00
2019-03-10T09:26:26.353Z,3196.00
2019-03-10T09:27:28.368Z,2552.00
2019-03-10T09:28:26.351Z,3112.00
2019-03-10T09:29:26.311Z,2472.00
2019-03-10T09:30:26.300Z,2212.00
2019-03-10T09:31:26.312Z,1792.00
2019-03-10T09:32:26.281Z,1700.00
2019-03-10T09:33:26.294Z,1640.00
2019-03-10T09:34:26.261Z,1960.00
2019-03-10T09:35:26.247Z,1680.00
2019-03-10T09:36:26.233Z,1216.00
2019-03-10T09:37:26.233Z,1384.00
2019-03-10T09:38:26.238Z,1336.00
2019-03-10T09:39:26.198Z,2052.00
2019-03-10T09:40:26.195Z,2244.00
2019-03-10T09:41:26.180Z,2360.00
2019-03-10T09:42:26.167Z,1816.00
2019-03-10T09:43:26.174Z,2028.00
2019-03-10T09:44:26.152Z,2688.00
2019-03-10T09:45:26.142Z,3624.00
2019-03-10T09:46:26.124Z,5136.00
2019-03-10T09:47:26.113Z,5648.00
2019-03-10T09:48:26.115Z,3688.00
2019-03-10T09:49:26.088Z,4728.00
2019-03-10T09:50:26.080Z,3508.00
2019-03-10T09:51:26.066Z,2564.00
2019-03-10T09:52:26.054Z,4008.00
2019-03-10T09:53:26.061Z,2720.00
2019-03-10T09:54:26.033Z,2464.00
2019-03-10T09:55:26.018Z,2420.00
2019-03-10T09:56:26.017Z,2768.00
2019-03-10T09:57:25.998Z,3028.00
2019-03-10T09:58:26.006Z,2920.00
2019-03-10T09:59:25.978Z,4340.00
2019-03-10T10:00:25.967Z,3840.00
2019-03-10T10:01:25.952Z,3096.00
2019-03-10T10:02:25.950Z,3604.00
2019-03-10T10:03:25.952Z,5056.00
2019-03-10T10:04:25.918Z,6912.00
2019-03-10T10:05:25.910Z,7496.00
2019-03-10T10:06:25.903Z,11208.00
2019-03-10T10:07:25.896Z,17984.00
2019-03-10T10:08:25.895Z,12672.00
2019-03-10T10:09:25.870Z,12220.00
2019-03-10T10:10:25.854Z,19840.00
2019-03-10T10:11:25.856Z,20512.00
2019-03-10T10:12:25.829Z,20896.00
2019-03-10T10:13:25.837Z,26112.00
2019-03-10T10:14:25.812Z,17280.00
2019-03-10T10:15:25.803Z,54784.00
2019-03-10T10:16:25.786Z,51200.00
2019-03-10T10:17:25.776Z,53760.00
2019-03-10T10:18:25.784Z,53600.00
2019-03-10T10:19:25.754Z,13572.00
2019-03-10T10:20:26.835Z,17024.00
2019-03-10T10:21:25.737Z,18752.00
2019-03-10T10:22:25.722Z,52480.00
2019-03-10T10:23:25.730Z,31328.00
2019-03-10T10:24:25.697Z,55520.00
2019-03-10T10:25:25.687Z,15296.00
2019-03-10T10:26:25.687Z,4668.00
2019-03-10T10:27:25.673Z,3300.00
2019-03-10T10:28:25.681Z,1940.00
2019-03-10T10:29:25.646Z,4328.00
2019-03-10T10:30:25.633Z,2148.00
2019-03-10T10:31:25.622Z,2136.00
2019-03-10T10:32:25.614Z,2240.00
2019-03-10T10:33:25.629Z,1740.00
2019-03-10T10:34:25.592Z,968.00
2019-03-10T10:35:25.595Z,1216.00
2019-03-10T10:36:25.569Z,1152.00
2019-03-10T10:37:25.560Z,1568.00
2019-03-10T10:38:25.614Z,1568.00
2019-03-10T10:39:25.549Z,2076.00
2019-03-10T10:40:25.523Z,2472.00
2019-03-10T10:41:25.515Z,1584.00
2019-03-10T10:42:25.512Z,1664.00
2019-03-10T10:43:25.491Z,1456.00
2019-03-10T10:44:25.508Z,1576.00
2019-03-10T10:45:25.474Z,1956.00
2019-03-10T10:46:25.469Z,2064.00
2019-03-10T10:47:25.464Z,1528.00
2019-03-10T10:48:25.438Z,1380.00
2019-03-10T10:49:25.452Z,908.00
2019-03-10T10:50:25.431Z,1244.00
2019-03-10T10:51:25.405Z,1232.00
2019-03-10T10:52:25.404Z,980.00
2019-03-10T10:53:25.383Z,1916.00
2019-03-10T10:54:25.420Z,2320.00
2019-03-10T10:55:25.381Z,3160.00
2019-03-10T10:56:25.356Z,5924.00
2019-03-10T10:57:25.359Z,8324.00
2019-03-10T10:58:25.347Z,6972.00
2019-03-10T10:59:25.337Z,5432.00
2019-03-10T11:00:25.311Z,14328.00
2019-03-10T11:01:25.296Z,9792.00
2019-03-10T11:02:25.284Z,8012.00
2019-03-10T11:03:25.275Z,11036.00
2019-03-10T11:04:25.315Z,58432.00
2019-03-10T11:05:25.252Z,62720.00
2019-03-10T11:06:25.249Z,54208.00
2019-03-10T11:07:25.231Z,49568.00
2019-03-10T11:08:25.220Z,44000.00
2019-03-10T11:09:25.227Z,62208.00
2019-03-10T11:10:25.198Z,55104.00
2019-03-10T11:11:25.185Z,54016.00
2019-03-10T11:12:25.184Z,12496.00
2019-03-10T11:13:25.166Z,11016.00
2019-03-10T11:14:25.175Z,35744.00
2019-03-10T11:15:25.146Z,58528.00
2019-03-10T11:16:25.132Z,38048.00
2019-03-10T11:17:25.120Z,56128.00
2019-03-10T11:18:25.111Z,55488.00
2019-03-10T11:19:25.130Z,18592.00
2019-03-10T11:20:25.091Z,49344.00
2019-03-10T11:21:25.079Z,19936.00
2019-03-10T11:22:25.077Z,49408.00
2019-03-10T11:23:25.058Z,13656.00
2019-03-10T11:24:25.065Z,32832.00
2019-03-10T11:25:25.043Z,61056.00
2019-03-10T11:26:25.031Z,20320.00
2019-03-10T11:27:25.024Z,31904.00
2019-03-10T11:28:25.015Z,34400.00
2019-03-10T11:29:25.011Z,47936.00
2019-03-10T11:30:24.984Z,48896.00
2019-03-10T11:31:24.992Z,48352.00
2019-03-10T11:32:24.968Z,52000.00
2019-03-10T11:33:27.440Z,42240.00
2019-03-10T11:34:24.959Z,56832.00
2019-03-10T11:35:24.925Z,53504.00
2019-03-10T11:36:24.917Z,15936.00
2019-03-10T11:37:24.914Z,53568.00
2019-03-10T11:38:24.911Z,51840.00
2019-03-10T11:39:24.902Z,6144.00
2019-03-10T11:40:24.872Z,3616.00
2019-03-10T11:41:33.452Z,2584.00
2019-03-10T11:42:25.853Z,3032.00
2019-03-10T11:43:24.852Z,1712.00
2019-03-10T11:44:24.848Z,1852.00
2019-03-10T11:45:24.818Z,1632.00
2019-03-10T11:46:24.808Z,1140.00
2019-03-10T11:47:24.798Z,784.00
2019-03-10T11:48:24.816Z,608.00
2019-03-10T11:49:24.801Z,480.00
2019-03-10T11:50:24.808Z,400.00
2019-03-10T11:51:24.755Z,440.00
2019-03-10T11:52:24.744Z,432.00
2019-03-10T11:53:25.723Z,532.00
2019-03-10T11:54:24.744Z,636.00
2019-03-10T11:55:24.819Z,816.00
2019-03-10T11:56:24.714Z,1224.00
2019-03-10T11:57:24.688Z,2084.00
2019-03-10T11:58:24.694Z,2456.00
2019-03-10T11:59:24.690Z,3240.00
2019-03-10T12:00:24.658Z,5928.00
2019-03-10T12:01:24.653Z,4188.00
2019-03-10T12:02:24.634Z,7100.00
2019-03-10T12:03:24.648Z,9052.00
2019-03-10T12:04:24.647Z,9156.00
2019-03-10T12:05:24.612Z,4440.00
2019-03-10T12:06:24.593Z,7372.00
2019-03-10T12:07:24.605Z,5840.00
2019-03-10T12:08:24.579Z,17504.00
2019-03-10T12:09:24.583Z,7072.00
2019-03-10T12:10:24.550Z,5332.00
2019-03-10T12:11:24.543Z,26656.00
2019-03-10T12:12:24.528Z,5752.00
2019-03-10T12:13:24.535Z,4788.00
2019-03-10T12:14:24.527Z,5744.00
2019-03-10T12:15:24.496Z,10500.00
2019-03-10T12:16:24.485Z,4260.00
2019-03-10T12:17:24.474Z,3776.00
2019-03-10T12:18:24.468Z,3788.00
2019-03-10T12:19:24.501Z,9784.00
2019-03-10T12:20:24.440Z,3808.00
2019-03-10T12:21:24.430Z,3604.00
2019-03-10T12:22:24.421Z,3144.00
2019-03-10T12:23:24.411Z,3516.00
2019-03-10T12:24:24.399Z,7456.00
2019-03-10T12:25:24.439Z,10456.00
2019-03-10T12:26:24.387Z,5104.00
2019-03-10T12:27:24.362Z,3584.00
2019-03-10T12:28:24.357Z,5340.00
2019-03-10T12:29:24.342Z,2892.00
2019-03-10T12:30:24.353Z,2760.00
2019-03-10T12:31:24.322Z,2872.00
2019-03-10T12:32:24.312Z,2908.00
2019-03-10T12:33:24.301Z,3788.00
2019-03-10T12:34:24.300Z,2976.00
2019-03-10T12:35:33.925Z,3384.00
2019-03-10T12:36:25.317Z,3064.00
2019-03-10T12:37:24.273Z,2368.00
2019-03-10T12:38:24.249Z,2616.00
2019-03-10T12:39:24.232Z,2308.00
2019-03-10T12:40:24.243Z,3156.00
2019-03-10T12:41:24.210Z,2744.00